Time;durP1;ratioP1;P1;durP2;ratioP2;P2;SDS_P1;SDS_P2;PMS_P1;PMS_P2;Temp;Humidity;BMP_temperature;BMP_pressure;BME280_temperature;BME280_humidity;BME280_pressure;Samples;Min_cycle;Max_cycle;Signal;HPM_P1;HPM_P2
2022/04/13 00:00:58;;;;;;;1.65;1.30;;;;;;;;;;4944925;29;20774;-69
2022/04/13 00:03:25;;;;;;;1.90;1.20;;;;;;;;;;4943353;29;20217;-70
2022/04/13 00:05:53;;;;;;;3.25;1.70;;;;;;;;;;4948587;28;20203;-71
2022/04/13 00:08:20;;;;;;;1.63;1.38;;;;;;;;;;4945436;28;20231;-70
2022/04/13 00:10:47;;;;;;;2.03;1.70;;;;;;;;;;4944920;28;20209;-70
2022/04/13 00:13:14;;;;;;;2.03;1.50;;;;;;;;;;4946690;28;20201;-70
2022/04/13 00:15:43;;;;;;;1.83;1.45;;;;;;;;;;4948340;29;20194;-70
2022/04/13 00:18:10;;;;;;;1.70;1.60;;;;;;;;;;4946359;29;20673;-70
2022/04/13 00:20:37;;;;;;;1.90;1.70;;;;;;;;;;4944767;29;20416;-70
2022/04/13 00:23:04;;;;;;;3.63;1.90;;;;;;;;;;4944745;28;20213;-70
2022/04/13 00:25:31;;;;;;;1.63;1.38;;;;;;;;;;4942842;28;20288;-72
2022/04/13 00:27:58;;;;;;;2.25;1.60;;;;;;;;;;4944558;28;20652;-72
2022/04/13 00:30:26;;;;;;;1.83;1.23;;;;;;;;;;4949935;28;20691;-72
2022/04/13 00:32:54;;;;;;;2.33;2.00;;;;;;;;;;4948038;29;20226;-72
2022/04/13 00:35:21;;;;;;;1.63;1.50;;;;;;;;;;4945549;29;20198;-72
2022/04/13 00:37:48;;;;;;;1.50;1.40;;;;;;;;;;4953981;29;20703;-72
2022/04/13 00:40:15;;;;;;;1.98;1.70;;;;;;;;;;4952208;28;20724;-72
2022/04/13 00:42:42;;;;;;;1.48;1.38;;;;;;;;;;4952761;29;20217;-72
2022/04/13 00:45:09;;;;;;;1.55;1.45;;;;;;;;;;4944191;28;20202;-72
2022/04/13 00:47:39;;;;;;;1.92;1.30;;;;;;;;;;4960921;28;20198;-72
2022/04/13 00:50:08;;;;;;;1.90;1.80;;;;;;;;;;4942389;29;20246;-72
2022/04/13 00:52:37;;;;;;;2.33;1.75;;;;;;;;;;4952653;29;20218;-72
2022/04/13 00:55:04;;;;;;;2.30;1.60;;;;;;;;;;4954762;28;20204;-72
2022/04/13 00:57:32;;;;;;;1.58;1.48;;;;;;;;;;4963669;28;20257;-72
2022/04/13 00:59:59;;;;;;;1.98;1.65;;;;;;;;;;4958026;28;20538;-72
2022/04/13 01:02:26;;;;;;;2.15;1.60;;;;;;;;;;4951728;29;20227;-72
2022/04/13 01:04:54;;;;;;;1.92;1.60;;;;;;;;;;4949139;29;20394;-72
2022/04/13 01:07:23;;;;;;;2.03;1.55;;;;;;;;;;4953205;29;20572;-72
2022/04/13 01:09:51;;;;;;;2.08;1.88;;;;;;;;;;4951913;29;20267;-72
2022/04/13 01:12:18;;;;;;;1.98;1.50;;;;;;;;;;4949708;29;20709;-72
2022/04/13 01:14:45;;;;;;;2.08;1.88;;;;;;;;;;4953156;28;20201;-72
2022/04/13 01:17:12;;;;;;;3.38;2.03;;;;;;;;;;4954484;28;20225;-72
2022/04/13 01:19:40;;;;;;;2.00;1.80;;;;;;;;;;4958934;28;20571;-72
2022/04/13 01:22:21;;;;;;;2.50;1.75;;;;;;;;;;4959656;28;20689;-72
2022/04/13 01:24:48;;;;;;;2.20;1.70;;;;;;;;;;4952226;29;20214;-72
2022/04/13 01:27:16;;;;;;;1.67;1.58;;;;;;;;;;4942115;29;20206;-72
2022/04/13 01:29:43;;;;;;;2.20;1.50;;;;;;;;;;4952686;29;20197;-73
2022/04/13 01:32:10;;;;;;;2.33;1.73;;;;;;;;;;4952021;29;20253;-72
2022/04/13 01:34:37;;;;;;;3.30;1.90;;;;;;;;;;4951251;29;20426;-71
2022/04/13 01:37:05;;;;;;;1.90;1.80;;;;;;;;;;4952446;29;20187;-73
2022/04/13 01:39:33;;;;;;;2.03;1.60;;;;;;;;;;4960956;28;20229;-72
2022/04/13 01:42:00;;;;;;;4.72;1.77;;;;;;;;;;4945643;28;20211;-72
2022/04/13 01:44:27;;;;;;;2.35;1.70;;;;;;;;;;4944636;29;20565;-72
2022/04/13 01:46:54;;;;;;;8.30;1.80;;;;;;;;;;4952343;29;20665;-71
2022/04/13 01:49:21;;;;;;;2.00;1.90;;;;;;;;;;4945259;28;20671;-71
2022/04/13 01:51:48;;;;;;;1.70;1.50;;;;;;;;;;4951768;28;20232;-71
2022/04/13 01:54:15;;;;;;;1.80;1.70;;;;;;;;;;4955816;29;20215;-71
2022/04/13 01:56:44;;;;;;;2.15;1.95;;;;;;;;;;4955998;29;20198;-71
2022/04/13 01:59:11;;;;;;;2.60;1.65;;;;;;;;;;4952373;29;20198;-70
2022/04/13 02:01:43;;;;;;;1.50;1.40;;;;;;;;;;4954663;29;20206;-70
2022/04/13 02:04:17;;;;;;;3.53;1.45;;;;;;;;;;4958155;28;20592;-71
2022/04/13 02:06:44;;;;;;;2.05;1.50;;;;;;;;;;4958386;28;20198;-72
2022/04/13 02:09:11;;;;;;;2.97;1.95;;;;;;;;;;4954182;29;20194;-72
2022/04/13 02:11:38;;;;;;;1.95;1.65;;;;;;;;;;4952141;28;20199;-72
2022/04/13 02:14:07;;;;;;;1.52;1.17;;;;;;;;;;4945510;28;20194;-72
2022/04/13 02:16:34;;;;;;;2.83;1.63;;;;;;;;;;4945847;28;20205;-71
2022/04/13 02:19:01;;;;;;;2.10;1.52;;;;;;;;;;4945180;28;20198;-71
2022/04/13 02:21:28;;;;;;;2.22;1.45;;;;;;;;;;4947992;28;20634;-71
2022/04/13 02:23:55;;;;;;;1.73;1.63;;;;;;;;;;4946442;28;20202;-71
2022/04/13 02:26:22;;;;;;;2.60;1.70;;;;;;;;;;4945263;29;20208;-70
2022/04/13 02:28:50;;;;;;;1.75;1.40;;;;;;;;;;4944833;29;20199;-71
2022/04/13 02:31:18;;;;;;;3.42;2.00;;;;;;;;;;4944586;29;20206;-70
2022/04/13 02:33:47;;;;;;;2.30;1.90;;;;;;;;;;4943723;29;20226;-71
2022/04/13 02:36:14;;;;;;;3.80;2.60;;;;;;;;;;4946602;28;20212;-71
2022/04/13 02:38:41;;;;;;;2.20;1.88;;;;;;;;;;4948033;28;20198;-70
2022/04/13 02:41:08;;;;;;;1.60;1.45;;;;;;;;;;4947249;28;20205;-71
2022/04/13 02:43:35;;;;;;;1.63;1.52;;;;;;;;;;4946818;29;20206;-70
2022/04/13 02:46:02;;;;;;;2.53;1.83;;;;;;;;;;4945330;28;20217;-71
2022/04/13 02:48:31;;;;;;;2.00;1.80;;;;;;;;;;4943796;29;20198;-72
2022/04/13 02:50:58;;;;;;;3.33;2.05;;;;;;;;;;4953331;28;20205;-72
2022/04/13 02:53:26;;;;;;;2.63;1.52;;;;;;;;;;4963584;28;20218;-71
2022/04/13 02:55:53;;;;;;;1.83;1.70;;;;;;;;;;4954255;29;20665;-71
2022/04/13 02:58:20;;;;;;;6.07;1.88;;;;;;;;;;4953865;29;20203;-71
2022/04/13 03:00:48;;;;;;;2.25;2.05;;;;;;;;;;4944298;29;20542;-71
2022/04/13 03:03:16;;;;;;;1.80;1.70;;;;;;;;;;4952954;28;20257;-72
2022/04/13 03:05:45;;;;;;;2.08;1.88;;;;;;;;;;4950884;29;20312;-72
2022/04/13 03:08:12;;;;;;;2.70;2.28;;;;;;;;;;4948100;28;20564;-72
2022/04/13 03:10:39;;;;;;;2.10;1.60;;;;;;;;;;4947085;28;20293;-72
2022/04/13 03:13:06;;;;;;;1.88;1.77;;;;;;;;;;4943459;28;20225;-70
2022/04/13 03:15:33;;;;;;;1.65;1.48;;;;;;;;;;4944104;29;20202;-72
2022/04/13 03:18:00;;;;;;;4.53;1.92;;;;;;;;;;4945583;28;20218;-73
2022/04/13 03:20:27;;;;;;;3.10;2.28;;;;;;;;;;4946311;29;20198;-72
2022/04/13 03:22:56;;;;;;;1.70;1.60;;;;;;;;;;4951240;29;20229;-73
2022/04/13 03:25:23;;;;;;;3.05;1.50;;;;;;;;;;4944792;29;20202;-73
2022/04/13 03:27:50;;;;;;;1.98;1.80;;;;;;;;;;4944759;29;20664;-72
2022/04/13 03:30:18;;;;;;;1.98;1.77;;;;;;;;;;4943570;29;20327;-73
2022/04/13 03:32:45;;;;;;;2.38;2.17;;;;;;;;;;4944433;29;20222;-73
2022/04/13 03:35:12;;;;;;;2.60;2.00;;;;;;;;;;4944778;29;20621;-73
2022/04/13 03:37:40;;;;;;;2.25;2.00;;;;;;;;;;4945052;29;20222;-73
2022/04/13 03:40:09;;;;;;;2.00;1.80;;;;;;;;;;4945911;28;20947;-73
2022/04/13 03:42:37;;;;;;;2.90;2.20;;;;;;;;;;4944931;28;20212;-73
2022/04/13 03:45:05;;;;;;;2.67;2.33;;;;;;;;;;4944768;28;20201;-72
2022/04/13 03:47:32;;;;;;;2.15;1.95;;;;;;;;;;4944897;28;20194;-72
2022/04/13 03:49:59;;;;;;;4.72;2.50;;;;;;;;;;4945707;28;20199;-71
2022/04/13 03:52:26;;;;;;;2.97;1.90;;;;;;;;;;4952972;29;20229;-69
2022/04/13 03:54:54;;;;;;;1.98;1.73;;;;;;;;;;4952406;29;20197;-71
2022/04/13 03:57:22;;;;;;;2.38;2.15;;;;;;;;;;4950716;29;20210;-72
2022/04/13 03:59:50;;;;;;;2.95;2.20;;;;;;;;;;4943617;28;20204;-71
2022/04/13 04:02:17;;;;;;;3.90;2.28;;;;;;;;;;4944171;28;20210;-72
2022/04/13 04:04:44;;;;;;;4.70;2.00;;;;;;;;;;4944795;28;20604;-71
2022/04/13 04:07:11;;;;;;;2.08;1.70;;;;;;;;;;4943996;28;20653;-72
2022/04/13 04:09:38;;;;;;;2.78;2.13;;;;;;;;;;4946071;28;20206;-72
2022/04/13 04:12:05;;;;;;;2.85;2.42;;;;;;;;;;4947943;28;20202;-72
2022/04/13 04:14:34;;;;;;;2.88;2.40;;;;;;;;;;4943494;28;20223;-72
2022/04/13 04:17:01;;;;;;;2.55;2.30;;;;;;;;;;4944307;28;20213;-72
2022/04/13 04:19:28;;;;;;;2.65;2.13;;;;;;;;;;4943707;28;20206;-71
2022/04/13 04:21:56;;;;;;;2.33;1.80;;;;;;;;;;4945146;28;20194;-71
2022/04/13 04:24:23;;;;;;;3.35;2.17;;;;;;;;;;4944739;28;20245;-71
2022/04/13 04:26:50;;;;;;;2.60;2.00;;;;;;;;;;4944440;28;20202;-72
2022/04/13 04:29:17;;;;;;;2.85;1.55;;;;;;;;;;4942146;28;20684;-72
2022/04/13 04:31:53;;;;;;;3.10;2.58;;;;;;;;;;4943758;28;20205;-72
2022/04/13 04:34:20;;;;;;;2.90;2.25;;;;;;;;;;4942892;28;20232;-72
2022/04/13 04:36:47;;;;;;;2.47;2.28;;;;;;;;;;4944143;28;20198;-71
2022/04/13 04:39:15;;;;;;;2.50;2.00;;;;;;;;;;4945038;28;20241;-74
2022/04/13 04:41:42;;;;;;;2.70;2.50;;;;;;;;;;4946828;29;20209;-73
2022/04/13 04:44:10;;;;;;;2.88;2.33;;;;;;;;;;4945642;28;20202;-72
2022/04/13 04:46:37;;;;;;;1.92;1.75;;;;;;;;;;4944064;28;20210;-72
2022/04/13 04:49:06;;;;;;;4.18;2.17;;;;;;;;;;4944993;29;20267;-71
2022/04/13 04:51:33;;;;;;;3.50;2.60;;;;;;;;;;4946721;29;20198;-71
2022/04/13 04:54:00;;;;;;;2.75;2.30;;;;;;;;;;4951681;29;20738;-71
2022/04/13 04:56:28;;;;;;;2.47;2.28;;;;;;;;;;4951520;29;20703;-71
2022/04/13 04:58:55;;;;;;;2.40;2.20;;;;;;;;;;4938886;29;20202;-71
2022/04/13 05:01:22;;;;;;;3.10;2.80;;;;;;;;;;4943925;29;20205;-71
2022/04/13 05:03:49;;;;;;;2.67;2.38;;;;;;;;;;4941555;29;20629;-71
2022/04/13 05:06:20;;;;;;;3.97;2.45;;;;;;;;;;4944373;28;20572;-71
2022/04/13 05:08:47;;;;;;;3.17;2.58;;;;;;;;;;4943943;28;20202;-71
2022/04/13 05:11:14;;;;;;;3.88;3.40;;;;;;;;;;4940451;28;20221;-71
2022/04/13 05:13:41;;;;;;;3.30;2.67;;;;;;;;;;4949543;29;20222;-71
2022/04/13 05:16:08;;;;;;;2.72;1.98;;;;;;;;;;4942923;29;20194;-71
2022/04/13 05:18:35;;;;;;;3.63;2.42;;;;;;;;;;4941825;29;20214;-71
2022/04/13 05:21:02;;;;;;;3.22;2.10;;;;;;;;;;4946536;29;20210;-71
2022/04/13 05:23:31;;;;;;;2.60;2.40;;;;;;;;;;4944925;29;20596;-71
2022/04/13 05:25:58;;;;;;;2.72;2.42;;;;;;;;;;4941134;28;20209;-72
2022/04/13 05:28:25;;;;;;;2.50;2.30;;;;;;;;;;4944055;28;20201;-71
2022/04/13 05:30:52;;;;;;;2.55;2.35;;;;;;;;;;4942558;29;20198;-72
2022/04/13 05:33:19;;;;;;;2.60;2.40;;;;;;;;;;4942327;29;20214;-72
2022/04/13 05:35:46;;;;;;;3.22;2.50;;;;;;;;;;4943525;28;20201;-72
2022/04/13 05:38:13;;;;;;;2.35;2.00;;;;;;;;;;4947296;28;20202;-72
2022/04/13 05:40:41;;;;;;;2.38;2.05;;;;;;;;;;4943073;28;20233;-72
2022/04/13 05:43:09;;;;;;;2.35;2.15;;;;;;;;;;4946105;28;20560;-71
2022/04/13 05:45:36;;;;;;;4.15;2.58;;;;;;;;;;4944595;28;20201;-71
2022/04/13 05:48:03;;;;;;;2.45;2.25;;;;;;;;;;4944360;28;20214;-72
2022/04/13 05:50:30;;;;;;;3.67;2.70;;;;;;;;;;4943702;28;20596;-72
2022/04/13 05:52:57;;;;;;;4.22;2.60;;;;;;;;;;4942438;29;20249;-72
2022/04/13 05:55:25;;;;;;;2.95;2.65;;;;;;;;;;4943896;28;20922;-71
2022/04/13 05:57:53;;;;;;;2.55;2.15;;;;;;;;;;4939052;29;20214;-72
2022/04/13 06:00:20;;;;;;;2.28;2.05;;;;;;;;;;4944354;28;20202;-72
2022/04/13 06:02:47;;;;;;;3.95;2.67;;;;;;;;;;4944620;28;20534;-71
2022/04/13 06:05:14;;;;;;;2.60;2.20;;;;;;;;;;4942651;28;20202;-72
2022/04/13 06:07:42;;;;;;;4.80;2.45;;;;;;;;;;4942984;28;20203;-71
2022/04/13 06:10:09;;;;;;;3.83;2.40;;;;;;;;;;4943290;28;20762;-69
2022/04/13 06:12:36;;;;;;;2.88;2.67;;;;;;;;;;4957986;28;20247;-70
2022/04/13 06:15:06;;;;;;;2.65;2.38;;;;;;;;;;4954823;28;20226;-69
2022/04/13 06:17:33;;;;;;;3.53;1.90;;;;;;;;;;4948238;28;20198;-69
2022/04/13 06:20:00;;;;;;;3.08;2.67;;;;;;;;;;4952888;28;20217;-70
2022/04/13 06:22:28;;;;;;;6.78;2.78;;;;;;;;;;4952258;28;20209;-69
2022/04/13 06:24:55;;;;;;;4.00;2.40;;;;;;;;;;4950847;29;20605;-69
2022/04/13 06:27:22;;;;;;;3.80;2.63;;;;;;;;;;4950912;29;20697;-69
2022/04/13 06:29:49;;;;;;;3.00;2.40;;;;;;;;;;4945949;29;20201;-69
2022/04/13 06:32:17;;;;;;;3.47;2.35;;;;;;;;;;4950439;29;20190;-69
2022/04/13 06:34:44;;;;;;;2.90;2.50;;;;;;;;;;4951106;28;20550;-69
2022/04/13 06:37:11;;;;;;;3.42;2.40;;;;;;;;;;4949898;28;20744;-70
2022/04/13 06:39:38;;;;;;;2.33;2.13;;;;;;;;;;4945585;28;20237;-70
2022/04/13 06:42:06;;;;;;;3.03;2.30;;;;;;;;;;4946987;28;20198;-72
2022/04/13 06:44:33;;;;;;;2.70;2.10;;;;;;;;;;4946219;29;20218;-72
2022/04/13 06:47:01;;;;;;;2.90;2.50;;;;;;;;;;4945618;29;20198;-72
2022/04/13 06:49:29;;;;;;;6.13;2.88;;;;;;;;;;4946511;29;20226;-71
2022/04/13 06:51:56;;;;;;;2.42;2.13;;;;;;;;;;4950731;28;20201;-71
2022/04/13 06:54:24;;;;;;;2.30;1.80;;;;;;;;;;4953089;29;20951;-71
2022/04/13 06:56:51;;;;;;;2.78;2.33;;;;;;;;;;4952719;28;20653;-70
2022/04/13 06:59:18;;;;;;;2.63;2.42;;;;;;;;;;4954664;29;20192;-70
2022/04/13 07:01:45;;;;;;;4.50;2.30;;;;;;;;;;4953726;29;20198;-70
2022/04/13 07:04:12;;;;;;;9.27;4.65;;;;;;;;;;4957248;28;20589;-70
2022/04/13 07:06:40;;;;;;;4.30;3.17;;;;;;;;;;4966301;28;20203;-70
2022/04/13 07:09:08;;;;;;;5.60;3.50;;;;;;;;;;4953312;29;20459;-70
2022/04/13 07:11:35;;;;;;;6.78;2.83;;;;;;;;;;4953574;29;20560;-70
2022/04/13 07:14:02;;;;;;;4.22;3.25;;;;;;;;;;4951265;29;20221;-71
2022/04/13 07:16:29;;;;;;;7.13;3.58;;;;;;;;;;4948420;29;20209;-71
2022/04/13 07:18:56;;;;;;;3.03;2.55;;;;;;;;;;4948717;29;20207;-72
2022/04/13 07:21:24;;;;;;;4.53;3.03;;;;;;;;;;4944704;29;20601;-72
2022/04/13 07:23:52;;;;;;;3.63;2.55;;;;;;;;;;4960347;28;20204;-72
2022/04/13 07:26:19;;;;;;;3.53;2.60;;;;;;;;;;4960022;28;20207;-72
2022/04/13 07:28:46;;;;;;;5.88;2.97;;;;;;;;;;4951396;29;20205;-72
2022/04/13 07:31:13;;;;;;;4.43;2.80;;;;;;;;;;4952688;29;20215;-72
2022/04/13 07:33:40;;;;;;;2.80;2.60;;;;;;;;;;4951526;29;20261;-72
2022/04/13 07:36:07;;;;;;;3.22;2.72;;;;;;;;;;4944677;29;20196;-71
2022/04/13 07:38:34;;;;;;;4.30;2.78;;;;;;;;;;4954336;29;20225;-71
2022/04/13 07:41:04;;;;;;;3.47;2.20;;;;;;;;;;4953047;28;20210;-71
2022/04/13 07:43:31;;;;;;;6.82;3.03;;;;;;;;;;4957808;28;20206;-72
2022/04/13 07:45:58;;;;;;;4.68;2.20;;;;;;;;;;4954055;29;20206;-71
2022/04/13 07:48:25;;;;;;;3.95;2.58;;;;;;;;;;4952748;29;20527;-72
2022/04/13 07:50:52;;;;;;;5.60;2.67;;;;;;;;;;4952355;28;20200;-72
2022/04/13 07:53:19;;;;;;;2.85;2.00;;;;;;;;;;4953014;28;20203;-72
2022/04/13 07:55:46;;;;;;;4.22;2.65;;;;;;;;;;4973087;28;20205;-72
2022/04/13 07:58:14;;;;;;;6.30;2.50;;;;;;;;;;4957890;28;20656;-71
2022/04/13 08:00:41;;;;;;;5.10;2.38;;;;;;;;;;4934675;29;20433;-70
2022/04/13 08:03:08;;;;;;;4.13;3.03;;;;;;;;;;4945576;29;20198;-70
2022/04/13 08:05:35;;;;;;;9.52;5.10;;;;;;;;;;4951134;28;20511;-71
2022/04/13 08:08:02;;;;;;;5.43;3.30;;;;;;;;;;4958832;28;20216;-71
2022/04/13 08:10:29;;;;;;;3.63;3.13;;;;;;;;;;4953578;29;20224;-70
2022/04/13 08:12:56;;;;;;;4.10;2.90;;;;;;;;;;4950889;29;20562;-72
2022/04/13 08:15:25;;;;;;;3.90;3.10;;;;;;;;;;4951527;29;20223;-72
2022/04/13 08:17:52;;;;;;;5.80;3.65;;;;;;;;;;4944473;29;20209;-71
2022/04/13 08:20:19;;;;;;;4.55;3.05;;;;;;;;;;4950559;28;20202;-71
2022/04/13 08:22:48;;;;;;;4.80;3.40;;;;;;;;;;4948886;29;20594;-72
2022/04/13 08:25:15;;;;;;;5.53;4.00;;;;;;;;;;4953011;29;20225;-71
2022/04/13 08:27:42;;;;;;;4.50;3.22;;;;;;;;;;4951187;29;20194;-72
2022/04/13 08:30:10;;;;;;;4.60;2.92;;;;;;;;;;4950535;29;20203;-71
2022/04/13 08:32:39;;;;;;;4.28;3.42;;;;;;;;;;4963693;28;20207;-71
2022/04/13 08:35:09;;;;;;;4.75;4.15;;;;;;;;;;4946784;28;20221;-71
2022/04/13 08:37:36;;;;;;;5.72;3.30;;;;;;;;;;4972187;28;20210;-72
2022/04/13 08:40:04;;;;;;;5.80;4.60;;;;;;;;;;4954818;28;20235;-72
2022/04/13 08:42:37;;;;;;;4.53;3.30;;;;;;;;;;4952178;29;20196;-71
2022/04/13 08:45:05;;;;;;;5.15;3.00;;;;;;;;;;4947658;29;20646;-72
2022/04/13 08:47:35;;;;;;;3.40;3.00;;;;;;;;;;4952690;29;20194;-71
2022/04/13 08:50:03;;;;;;;3.15;2.65;;;;;;;;;;4938576;29;20578;-72
2022/04/13 08:52:31;;;;;;;6.70;3.22;;;;;;;;;;4950398;29;20203;-70
2022/04/13 08:55:04;;;;;;;3.95;3.03;;;;;;;;;;4951889;29;20217;-70
2022/04/13 08:57:36;;;;;;;7.22;3.53;;;;;;;;;;4951820;28;20286;-71
2022/04/13 09:00:06;;;;;;;3.58;3.00;;;;;;;;;;4952409;28;20674;-74
2022/04/13 09:02:39;;;;;;;3.55;2.92;;;;;;;;;;4950831;28;20215;-74
2022/04/13 09:05:10;;;;;;;7.30;3.45;;;;;;;;;;4954554;28;20202;-74
2022/04/13 09:07:37;;;;;;;4.25;3.75;;;;;;;;;;4952409;29;20586;-76
2022/04/13 09:10:05;;;;;;;4.38;3.22;;;;;;;;;;4952515;29;20216;-73
2022/04/13 09:12:33;;;;;;;6.40;3.00;;;;;;;;;;4950818;29;20206;-74
2022/04/13 09:15:01;;;;;;;4.78;3.25;;;;;;;;;;4958137;28;20230;-72
2022/04/13 09:17:29;;;;;;;4.00;2.75;;;;;;;;;;4956921;28;20197;-73
2022/04/13 09:19:57;;;;;;;6.22;2.90;;;;;;;;;;4958179;28;20256;-72
2022/04/13 09:22:25;;;;;;;5.03;3.70;;;;;;;;;;4952728;29;20202;-73
2022/04/13 09:24:53;;;;;;;4.35;3.20;;;;;;;;;;4951346;29;20203;-73
2022/04/13 09:27:20;;;;;;;4.22;3.13;;;;;;;;;;4948659;29;20217;-73
2022/04/13 09:29:48;;;;;;;7.35;3.35;;;;;;;;;;4951949;29;20197;-72
2022/04/13 09:32:15;;;;;;;5.05;3.55;;;;;;;;;;4951148;29;20202;-74
2022/04/13 09:34:42;;;;;;;3.83;3.45;;;;;;;;;;4940138;29;20229;-73
2022/04/13 09:37:09;;;;;;;5.95;3.63;;;;;;;;;;4934123;29;20206;-73
2022/04/13 09:39:38;;;;;;;4.93;3.30;;;;;;;;;;4959417;28;20225;-73
2022/04/13 09:42:05;;;;;;;5.63;4.57;;;;;;;;;;4945315;29;20562;-73
2022/04/13 09:44:33;;;;;;;7.65;4.15;;;;;;;;;;4946609;29;20218;-73
2022/04/13 09:47:06;;;;;;;4.35;3.67;;;;;;;;;;4951920;29;20215;-73
2022/04/13 09:49:33;;;;;;;5.05;3.58;;;;;;;;;;4941637;29;20213;-73
2022/04/13 09:52:00;;;;;;;4.40;4.00;;;;;;;;;;4949465;29;20202;-73
2022/04/13 09:54:28;;;;;;;10.27;3.70;;;;;;;;;;4951437;29;20226;-73
2022/04/13 09:56:56;;;;;;;4.03;3.42;;;;;;;;;;4952279;29;20198;-73
2022/04/13 09:59:27;;;;;;;6.82;4.38;;;;;;;;;;4951522;29;20216;-73
2022/04/13 10:01:54;;;;;;;7.22;4.10;;;;;;;;;;4950915;28;20226;-73
2022/04/13 10:04:24;;;;;;;6.45;3.90;;;;;;;;;;4947504;28;20209;-73
2022/04/13 10:06:52;;;;;;;4.28;3.88;;;;;;;;;;4951924;29;20201;-73
2022/04/13 10:09:20;;;;;;;9.57;5.57;;;;;;;;;;4950925;29;20246;-73
2022/04/13 10:12:01;;;;;;;10.98;5.07;;;;;;;;;;4951414;29;20274;-73
2022/04/13 10:14:28;;;;;;;10.38;4.00;;;;;;;;;;4951198;28;20330;-73
2022/04/13 10:16:56;;;;;;;6.53;3.63;;;;;;;;;;4956261;28;20206;-71
2022/04/13 10:19:24;;;;;;;4.72;3.42;;;;;;;;;;4953693;28;20197;-71
2022/04/13 10:21:52;;;;;;;6.80;3.38;;;;;;;;;;4947940;28;20228;-71
2022/04/13 10:24:26;;;;;;;6.25;3.55;;;;;;;;;;4952805;28;20273;-71
2022/04/13 10:27:05;;;;;;;7.57;4.25;;;;;;;;;;4968749;28;20208;-70
2022/04/13 10:29:33;;;;;;;5.93;4.07;;;;;;;;;;4949176;28;20202;-72
2022/04/13 10:32:04;;;;;;;9.35;4.60;;;;;;;;;;4957101;28;20201;-71
2022/04/13 10:34:31;;;;;;;8.70;4.53;;;;;;;;;;4955084;28;20221;-71
2022/04/13 10:36:58;;;;;;;5.25;3.13;;;;;;;;;;4955466;28;20193;-73
2022/04/13 10:39:25;;;;;;;6.80;4.03;;;;;;;;;;4952318;28;20218;-72
2022/04/13 10:41:52;;;;;;;7.68;3.25;;;;;;;;;;4950223;28;20211;-71
2022/04/13 10:44:24;;;;;;;10.15;4.30;;;;;;;;;;4945891;28;20459;-71
2022/04/13 10:46:54;;;;;;;4.90;3.70;;;;;;;;;;4954186;28;20230;-71
2022/04/13 10:49:23;;;;;;;5.07;3.40;;;;;;;;;;4948638;28;20210;-71
2022/04/13 10:51:52;;;;;;;4.75;3.42;;;;;;;;;;4947390;28;20210;-72
2022/04/13 10:54:21;;;;;;;6.30;2.40;;;;;;;;;;4947391;28;20281;-72
2022/04/13 10:56:56;;;;;;;3.80;3.40;;;;;;;;;;4950018;28;20568;-72
2022/04/13 10:59:30;;;;;;;6.43;2.78;;;;;;;;;;4949519;28;20229;-72
2022/04/13 11:01:59;;;;;;;15.77;3.63;;;;;;;;;;4955645;28;20209;-72
2022/04/13 11:04:28;;;;;;;7.22;2.67;;;;;;;;;;4950015;28;20733;-71
2022/04/13 11:06:55;;;;;;;3.67;3.33;;;;;;;;;;4951218;28;20205;-73
2022/04/13 11:09:27;;;;;;;4.00;2.40;;;;;;;;;;4955192;28;20209;-71
2022/04/13 11:11:54;;;;;;;5.68;3.33;;;;;;;;;;4954744;28;20297;-71
2022/04/13 11:14:22;;;;;;;4.30;2.60;;;;;;;;;;4954293;28;20679;-71
2022/04/13 11:16:53;;;;;;;5.97;3.08;;;;;;;;;;4961836;28;20193;-72
2022/04/13 11:19:23;;;;;;;6.80;3.50;;;;;;;;;;4947128;28;20206;-71
2022/04/13 11:22:10;;;;;;;4.88;3.53;;;;;;;;;;4954000;28;20205;-71
2022/04/13 11:24:38;;;;;;;7.45;4.45;;;;;;;;;;4962955;28;20233;-73
2022/04/13 11:27:06;;;;;;;6.80;2.90;;;;;;;;;;4960035;28;20205;-73
2022/04/13 11:29:34;;;;;;;9.10;3.35;;;;;;;;;;4947821;28;20211;-72
2022/04/13 11:32:13;;;;;;;6.95;2.80;;;;;;;;;;4952883;28;20545;-71
2022/04/13 11:34:41;;;;;;;4.68;3.47;;;;;;;;;;4943030;28;20216;-71
2022/04/13 11:37:09;;;;;;;4.13;2.63;;;;;;;;;;4948748;28;20202;-73
2022/04/13 11:39:47;;;;;;;3.50;2.42;;;;;;;;;;4958434;28;20308;-70
2022/04/13 11:42:46;;;;;;;3.78;3.00;;;;;;;;;;4962262;28;20510;-71
2022/04/13 11:45:14;;;;;;;6.95;3.38;;;;;;;;;;4956607;28;20216;-71
2022/04/13 11:47:44;;;;;;;4.30;2.78;;;;;;;;;;4953691;28;20226;-71
2022/04/13 11:50:21;;;;;;;3.33;2.60;;;;;;;;;;4935964;29;20534;-71
2022/04/13 11:52:50;;;;;;;6.30;2.60;;;;;;;;;;4954348;28;20217;-72
2022/04/13 11:55:18;;;;;;;5.15;2.78;;;;;;;;;;4965176;28;20221;-71
2022/04/13 11:58:09;;;;;;;5.00;2.60;;;;;;;;;;4963691;28;20745;-71
2022/04/13 12:00:39;;;;;;;4.45;2.35;;;;;;;;;;4952462;28;20205;-71
2022/04/13 12:03:10;;;;;;;3.65;2.83;;;;;;;;;;4951431;28;20549;-71
2022/04/13 12:05:38;;;;;;;3.50;2.40;;;;;;;;;;4950520;28;20206;-73
2022/04/13 12:08:09;;;;;;;7.88;2.35;;;;;;;;;;4945752;28;20221;-71
2022/04/13 12:10:39;;;;;;;5.85;2.83;;;;;;;;;;4961519;28;20510;-72
2022/04/13 12:13:06;;;;;;;3.92;2.70;;;;;;;;;;4957088;28;20284;-72
2022/04/13 12:15:46;;;;;;;4.70;2.65;;;;;;;;;;4962145;28;20222;-72
2022/04/13 12:18:15;;;;;;;3.92;2.20;;;;;;;;;;4944759;28;20210;-70
2022/04/13 12:20:42;;;;;;;4.80;2.10;;;;;;;;;;4954118;28;20536;-71
2022/04/13 12:23:16;;;;;;;3.20;2.40;;;;;;;;;;4964354;28;20194;-71
2022/04/13 12:25:43;;;;;;;4.55;2.50;;;;;;;;;;4954529;28;20206;-72
2022/04/13 12:28:11;;;;;;;4.05;2.72;;;;;;;;;;4957029;28;20198;-70
2022/04/13 12:30:38;;;;;;;4.47;2.50;;;;;;;;;;4956220;28;20201;-71
2022/04/13 12:33:13;;;;;;;6.82;2.70;;;;;;;;;;4962039;28;20312;-72
2022/04/13 12:35:48;;;;;;;3.10;1.80;;;;;;;;;;4947266;28;20228;-74
2022/04/13 12:38:21;;;;;;;2.47;1.65;;;;;;;;;;4956947;28;20206;-71
2022/04/13 12:40:49;;;;;;;5.25;2.85;;;;;;;;;;4951502;28;20229;-72
2022/04/13 12:43:26;;;;;;;2.38;2.05;;;;;;;;;;4954195;28;20253;-72
2022/04/13 12:45:53;;;;;;;6.32;2.35;;;;;;;;;;4960169;28;20230;-72
2022/04/13 12:48:25;;;;;;;3.97;2.80;;;;;;;;;;4968384;28;20209;-72
2022/04/13 12:50:57;;;;;;;3.60;2.10;;;;;;;;;;4930869;29;20242;-72
2022/04/13 12:53:25;;;;;;;3.45;2.35;;;;;;;;;;4937515;29;20581;-72
2022/04/13 12:55:53;;;;;;;3.35;2.30;;;;;;;;;;4952536;28;20222;-71
2022/04/13 12:58:20;;;;;;;7.03;2.55;;;;;;;;;;4953618;28;20241;-71
2022/04/13 13:00:48;;;;;;;3.28;1.80;;;;;;;;;;4958672;28;20660;-71
2022/04/13 13:03:15;;;;;;;6.18;3.30;;;;;;;;;;4957428;28;20608;-71
2022/04/13 13:05:42;;;;;;;5.25;2.33;;;;;;;;;;4950935;28;20233;-72
2022/04/13 13:08:10;;;;;;;5.93;3.33;;;;;;;;;;4957386;28;20194;-71
2022/04/13 13:10:37;;;;;;;3.83;2.40;;;;;;;;;;4958975;28;20206;-71
2022/04/13 13:13:12;;;;;;;6.82;2.80;;;;;;;;;;4948425;28;20481;-71
2022/04/13 13:15:39;;;;;;;3.15;1.77;;;;;;;;;;4936684;28;20253;-71
2022/04/13 13:18:07;;;;;;;5.90;1.92;;;;;;;;;;4949069;28;20641;-72
2022/04/13 13:20:35;;;;;;;4.25;2.67;;;;;;;;;;4953142;28;20209;-72
2022/04/13 13:23:07;;;;;;;3.28;2.13;;;;;;;;;;4958594;28;20288;-71
2022/04/13 13:25:42;;;;;;;3.00;2.08;;;;;;;;;;4956607;28;20296;-72
2022/04/13 13:28:11;;;;;;;4.25;2.47;;;;;;;;;;4949477;28;20348;-73
2022/04/13 13:30:39;;;;;;;5.13;2.42;;;;;;;;;;4966787;28;20198;-72
2022/04/13 13:33:09;;;;;;;4.53;2.20;;;;;;;;;;4949634;28;20205;-72
2022/04/13 13:35:37;;;;;;;3.65;2.38;;;;;;;;;;4955861;28;20226;-71
2022/04/13 13:38:09;;;;;;;2.60;1.58;;;;;;;;;;4960674;28;20209;-72
2022/04/13 13:40:45;;;;;;;3.13;1.83;;;;;;;;;;4960674;28;20277;-73
2022/04/13 13:43:15;;;;;;;2.10;1.85;;;;;;;;;;4948363;28;20210;-73
2022/04/13 13:45:42;;;;;;;4.28;1.95;;;;;;;;;;4955763;28;20292;-73
2022/04/13 13:48:11;;;;;;;2.90;1.80;;;;;;;;;;4958472;28;20309;-71
2022/04/13 13:50:39;;;;;;;4.60;2.47;;;;;;;;;;4958314;28;20202;-73
2022/04/13 13:53:07;;;;;;;4.28;2.05;;;;;;;;;;4966386;28;20195;-73
2022/04/13 13:55:35;;;;;;;2.28;1.77;;;;;;;;;;4969215;28;20557;-73
2022/04/13 13:58:04;;;;;;;3.15;2.30;;;;;;;;;;4957806;28;20281;-73
2022/04/13 14:00:34;;;;;;;2.60;1.70;;;;;;;;;;4967706;28;20197;-73
2022/04/13 14:03:02;;;;;;;3.20;1.75;;;;;;;;;;4960553;28;20205;-73
2022/04/13 14:05:30;;;;;;;2.30;1.75;;;;;;;;;;4958229;28;20201;-73
2022/04/13 14:07:57;;;;;;;5.35;2.40;;;;;;;;;;4959471;28;20285;-74
2022/04/13 14:10:25;;;;;;;3.47;2.05;;;;;;;;;;4960951;28;20213;-73
2022/04/13 14:12:52;;;;;;;5.72;2.10;;;;;;;;;;4956351;28;20202;-73
2022/04/13 14:15:21;;;;;;;2.13;1.65;;;;;;;;;;4959947;28;20945;-73
2022/04/13 14:17:49;;;;;;;2.65;2.20;;;;;;;;;;4953718;28;20213;-73
2022/04/13 14:20:17;;;;;;;4.45;2.03;;;;;;;;;;4955743;28;20205;-73
2022/04/13 14:22:44;;;;;;;3.47;1.75;;;;;;;;;;4963179;28;20224;-73
2022/04/13 14:25:12;;;;;;;2.83;1.70;;;;;;;;;;4949737;28;20206;-73
2022/04/13 14:27:40;;;;;;;3.13;1.88;;;;;;;;;;4950435;28;20712;-73
2022/04/13 14:30:09;;;;;;;4.07;1.85;;;;;;;;;;4965675;28;20198;-73
2022/04/13 14:32:37;;;;;;;2.70;2.10;;;;;;;;;;4960717;28;20678;-72
2022/04/13 14:35:07;;;;;;;3.22;1.90;;;;;;;;;;4952594;28;20217;-72
2022/04/13 14:37:34;;;;;;;2.78;2.17;;;;;;;;;;4960075;28;20221;-70
2022/04/13 14:40:02;;;;;;;4.93;2.33;;;;;;;;;;4957381;28;20573;-70
2022/04/13 14:42:29;;;;;;;3.50;2.10;;;;;;;;;;4959543;28;20201;-72
2022/04/13 14:44:56;;;;;;;4.88;2.25;;;;;;;;;;4965112;28;20206;-72
2022/04/13 14:47:23;;;;;;;3.05;1.80;;;;;;;;;;4962030;28;20205;-71
2022/04/13 14:49:52;;;;;;;4.05;1.65;;;;;;;;;;4959087;28;20206;-71